Galileo — SX2040 — position and weather

sailwx.info

Track history (hours):
 
Tides and Currents Weather Stations Pressure Air Temp Water Temp Dewpoint Dewpoint Depression Visibility Wind Speed Wind Dir Waves Ship Positions

Galileo

Last reported at 2016-Jun-26 00:17 UTC. Time now 2016-Jun-26 11:58 UTC.
Position N 37°20' E 023°42'.

Length 40 m; draft 3 m.

Type: Passenger vessel. MMSI: 239299000.

Date/timePositionNaut miles runAvg speedWind from/ knotsBaromVisibWave heightAir tempDewpointWater temp
2016-Jun-26 00:17N 37°20' E 023°42'810.7
2016-Jun-25 23:31N 37°26' E 023°35'7 7.7
2016-Jun-25 22:33N 37°30' E 023°27'0 0.0
2016-Jun-25 21:33N 37°30' E 023°27'0 0.0
2016-Jun-25 20:33N 37°30' E 023°27'0 0.0
2016-Jun-25 19:33N 37°30' E 023°27'0 0.0
2016-Jun-25 18:33N 37°30' E 023°27'0 0.0
2016-Jun-25 17:33N 37°30' E 023°27'0 0.0
2016-Jun-25 16:33N 37°30' E 023°27'1 0.6
2016-Jun-25 15:33N 37°30' E 023°27'9 8.5
2016-Jun-25 14:33N 37°38' E 023°31'1010.3
2016-Jun-25 13:33N 37°48' E 023°35'9 8.7
2016-Jun-25 12:33N 37°56' E 023°39'0 0.0
2016-Jun-25 11:33N 37°56' E 023°39'0 0.0
2016-Jun-25 10:33N 37°56' E 023°39'0 0.0
2016-Jun-25 09:33N 37°56' E 023°39'0 0.0
2016-Jun-25 08:33N 37°56' E 023°39'0 0.0
2016-Jun-25 07:33N 37°56' E 023°39'0 0.0
2016-Jun-25 06:33N 37°56' E 023°39'0 0.0
2016-Jun-25 05:33N 37°56' E 023°39'0 0.0
2016-Jun-25 04:33N 37°56' E 023°39'0 0.0
2016-Jun-25 03:33N 37°56' E 023°39'0 0.0
2016-Jun-25 02:33N 37°56' E 023°39'0 0.0
2016-Jun-25 01:33N 37°56' E 023°39'0 0.0
2016-Jun-25 00:33N 37°56' E 023°39'0 0.0
2016-Jun-24 23:33N 37°56' E 023°39'0 0.0
2016-Jun-24 22:33N 37°56' E 023°39'0 0.0
2016-Jun-24 21:33N 37°56' E 023°39'0 0.0
2016-Jun-24 20:33N 37°56' E 023°39'0 0.0
2016-Jun-24 19:33N 37°56' E 023°39'0 0.0
2016-Jun-24 18:33N 37°56' E 023°39'0 0.0
2016-Jun-24 17:33N 37°56' E 023°39'0 0.0
2016-Jun-24 16:33N 37°56' E 023°39'5 5.1
2016-Jun-24 15:33N 37°52' E 023°35'10 9.7
2016-Jun-24 14:33N 37°46' E 023°25'2 0.2
2016-Jun-24 06:23N 37°45' E 023°26'0 0.0
2016-Jun-24 03:33N 37°45' E 023°26'8 7.7
2016-Jun-24 02:33N 37°38' E 023°31'1010.1
2016-Jun-24 01:33N 37°33' E 023°42'1110.0
2016-Jun-24 00:26N 37°27' E 023°54'43 8.9
2016-Jun-23 19:33N 37°21' E 024°48'13 0.6
2016-Jun-22 21:09N 37°28' E 025°01'15 1.6
2016-Jun-22 12:12N 37°28' E 025°20'0 0.7
2016-Jun-22 11:30N 37°28' E 025°19'0 0.1
2016-Jun-22 10:20N 37°28' E 025°19'6 1.0
2016-Jun-22 04:10N 37°22' E 025°17'6 9.6
2016-Jun-22 03:33N 37°17' E 025°13'13 0.7
2016-Jun-21 09:05N 37°05' E 025°06'  
2016-Jun-19 02:33N 37°11' E 024°01'1010.3
2016-Jun-19 01:33N 37°17' E 023°51'1110.4
2016-Jun-19 00:33N 37°23' E 023°40'1010.1
2016-Jun-18 23:33N 37°29' E 023°30'3 2.5
2016-Jun-18 22:34N 37°30' E 023°27'0 0.0
2016-Jun-18 21:33N 37°30' E 023°27'0 0.0
2016-Jun-18 20:33N 37°30' E 023°27'0 0.0
2016-Jun-18 19:33N 37°30' E 023°27'0 0.0
2016-Jun-18 18:33N 37°30' E 023°27'0 0.0
2016-Jun-18 17:34N 37°30' E 023°27'0 0.0
2016-Jun-18 16:33N 37°30' E 023°27'1 0.6
2016-Jun-18 15:33N 37°30' E 023°27'9 8.6
2016-Jun-18 14:33N 37°38' E 023°31'10 9.7
2016-Jun-18 13:34N 37°47' E 023°36'9 9.1
2016-Jun-18 12:34N 37°56' E 023°39'0 0.0
2016-Jun-18 11:34N 37°56' E 023°39'0 0.0
2016-Jun-18 10:33N 37°56' E 023°39'0 0.0
2016-Jun-18 09:33N 37°56' E 023°39'0 0.0
2016-Jun-18 08:33N 37°56' E 023°39'0 0.0
2016-Jun-18 07:33N 37°56' E 023°39'0 0.0
2016-Jun-18 06:33N 37°56' E 023°39'0 0.0
2016-Jun-18 05:33N 37°56' E 023°39'0 0.0
2016-Jun-18 04:33N 37°56' E 023°39'0 0.0
2016-Jun-18 03:33N 37°56' E 023°39'0 0.0
2016-Jun-18 02:33N 37°56' E 023°39'0 0.0
2016-Jun-18 01:34N 37°56' E 023°39'2 2.1
2016-Jun-18 00:34N 37°54' E 023°40'1010.0
2016-Jun-17 23:33N 37°45' E 023°45'1010.1
2016-Jun-17 22:33N 37°38' E 023°55'57 2.0
2016-Jun-16 17:33N 37°27' E 025°06'1110.6
2016-Jun-16 16:33N 37°28' E 025°19'1 0.1
2016-Jun-16 10:31N 37°28' E 025°20'  
Track history (hours):
 
Tides and Currents Weather Stations Pressure Air Temp Water Temp Dewpoint Dewpoint Depression Visibility Wind Speed Wind Dir Waves Ship Positions

Galileo

Last reported at 2016-Jun-26 00:17 UTC. Time now 2016-Jun-26 11:58 UTC.
Position N 37°20' E 023°42'.

Length 40 m; draft 3 m.

Type: Passenger vessel. MMSI: 239299000.

Date/timePositionNaut miles runAvg speedWind from/ knotsBaromVisibWave heightAir tempDewpointWater temp
2016-Jun-26 00:17N 37°20' E 023°42'810.7
2016-Jun-25 23:31N 37°26' E 023°35'7 7.7
2016-Jun-25 22:33N 37°30' E 023°27'0 0.0
2016-Jun-25 21:33N 37°30' E 023°27'0 0.0
2016-Jun-25 20:33N 37°30' E 023°27'0 0.0
2016-Jun-25 19:33N 37°30' E 023°27'0 0.0
2016-Jun-25 18:33N 37°30' E 023°27'0 0.0
2016-Jun-25 17:33N 37°30' E 023°27'0 0.0
2016-Jun-25 16:33N 37°30' E 023°27'1 0.6
2016-Jun-25 15:33N 37°30' E 023°27'9 8.5
2016-Jun-25 14:33N 37°38' E 023°31'1010.3
2016-Jun-25 13:33N 37°48' E 023°35'9 8.7
2016-Jun-25 12:33N 37°56' E 023°39'0 0.0
2016-Jun-25 11:33N 37°56' E 023°39'0 0.0
2016-Jun-25 10:33N 37°56' E 023°39'0 0.0
2016-Jun-25 09:33N 37°56' E 023°39'0 0.0
2016-Jun-25 08:33N 37°56' E 023°39'0 0.0
2016-Jun-25 07:33N 37°56' E 023°39'0 0.0
2016-Jun-25 06:33N 37°56' E 023°39'0 0.0
2016-Jun-25 05:33N 37°56' E 023°39'0 0.0
2016-Jun-25 04:33N 37°56' E 023°39'0 0.0
2016-Jun-25 03:33N 37°56' E 023°39'0 0.0
2016-Jun-25 02:33N 37°56' E 023°39'0 0.0
2016-Jun-25 01:33N 37°56' E 023°39'0 0.0
2016-Jun-25 00:33N 37°56' E 023°39'0 0.0
2016-Jun-24 23:33N 37°56' E 023°39'0 0.0
2016-Jun-24 22:33N 37°56' E 023°39'0 0.0
2016-Jun-24 21:33N 37°56' E 023°39'0 0.0
2016-Jun-24 20:33N 37°56' E 023°39'0 0.0
2016-Jun-24 19:33N 37°56' E 023°39'0 0.0
2016-Jun-24 18:33N 37°56' E 023°39'0 0.0
2016-Jun-24 17:33N 37°56' E 023°39'0 0.0
2016-Jun-24 16:33N 37°56' E 023°39'5 5.1
2016-Jun-24 15:33N 37°52' E 023°35'10 9.7
2016-Jun-24 14:33N 37°46' E 023°25'2 0.2
2016-Jun-24 06:23N 37°45' E 023°26'0 0.0
2016-Jun-24 03:33N 37°45' E 023°26'8 7.7
2016-Jun-24 02:33N 37°38' E 023°31'1010.1
2016-Jun-24 01:33N 37°33' E 023°42'1110.0
2016-Jun-24 00:26N 37°27' E 023°54'43 8.9
2016-Jun-23 19:33N 37°21' E 024°48'13 0.6
2016-Jun-22 21:09N 37°28' E 025°01'15 1.6
2016-Jun-22 12:12N 37°28' E 025°20'0 0.7
2016-Jun-22 11:30N 37°28' E 025°19'0 0.1
2016-Jun-22 10:20N 37°28' E 025°19'6 1.0
2016-Jun-22 04:10N 37°22' E 025°17'6 9.6
2016-Jun-22 03:33N 37°17' E 025°13'13 0.7
2016-Jun-21 09:05N 37°05' E 025°06'  
2016-Jun-19 02:33N 37°11' E 024°01'1010.3
2016-Jun-19 01:33N 37°17' E 023°51'1110.4
2016-Jun-19 00:33N 37°23' E 023°40'1010.1
2016-Jun-18 23:33N 37°29' E 023°30'3 2.5
2016-Jun-18 22:34N 37°30' E 023°27'0 0.0
2016-Jun-18 21:33N 37°30' E 023°27'0 0.0
2016-Jun-18 20:33N 37°30' E 023°27'0 0.0
2016-Jun-18 19:33N 37°30' E 023°27'0 0.0
2016-Jun-18 18:33N 37°30' E 023°27'0 0.0
2016-Jun-18 17:34N 37°30' E 023°27'0 0.0
2016-Jun-18 16:33N 37°30' E 023°27'1 0.6
2016-Jun-18 15:33N 37°30' E 023°27'9 8.6
2016-Jun-18 14:33N 37°38' E 023°31'10 9.7
2016-Jun-18 13:34N 37°47' E 023°36'9 9.1
2016-Jun-18 12:34N 37°56' E 023°39'0 0.0
2016-Jun-18 11:34N 37°56' E 023°39'0 0.0
2016-Jun-18 10:33N 37°56' E 023°39'0 0.0
2016-Jun-18 09:33N 37°56' E 023°39'0 0.0
2016-Jun-18 08:33N 37°56' E 023°39'0 0.0
2016-Jun-18 07:33N 37°56' E 023°39'0 0.0
2016-Jun-18 06:33N 37°56' E 023°39'0 0.0
2016-Jun-18 05:33N 37°56' E 023°39'0 0.0
2016-Jun-18 04:33N 37°56' E 023°39'0 0.0
2016-Jun-18 03:33N 37°56' E 023°39'0 0.0
2016-Jun-18 02:33N 37°56' E 023°39'0 0.0
2016-Jun-18 01:34N 37°56' E 023°39'2 2.1
2016-Jun-18 00:34N 37°54' E 023°40'1010.0
2016-Jun-17 23:33N 37°45' E 023°45'1010.1
2016-Jun-17 22:33N 37°38' E 023°55'57 2.0
2016-Jun-16 17:33N 37°27' E 025°06'1110.6
2016-Jun-16 16:33N 37°28' E 025°19'1 0.1
2016-Jun-16 10:31N 37°28' E 025°20'  

Dump ship's entire track history